sensor_id;sensor_type;location;lat;lon;timestamp;temperature;humidity
26053;DHT22;13826;51.186;4.450;2023-04-15T00:01:25;11.20;1.00
26053;DHT22;13826;51.186;4.450;2023-04-15T00:03:51;11.30;1.00
26053;DHT22;13826;51.186;4.450;2023-04-15T00:06:17;11.20;1.00
26053;DHT22;13826;51.186;4.450;2023-04-15T00:08:44;11.20;1.00
26053;DHT22;13826;51.186;4.450;2023-04-15T00:11:09;11.40;1.00
26053;DHT22;13826;51.186;4.450;2023-04-15T00:13:35;11.40;1.00
26053;DHT22;13826;51.186;4.450;2023-04-15T00:16:01;11.30;1.00
26053;DHT22;13826;51.186;4.450;2023-04-15T00:18:26;11.40;1.00
26053;DHT22;13826;51.186;4.450;2023-04-15T00:20:53;11.50;1.00
26053;DHT22;13826;51.186;4.450;2023-04-15T00:23:19;11.70;1.00
26053;DHT22;13826;51.186;4.450;2023-04-15T00:25:45;11.70;1.00
26053;DHT22;13826;51.186;4.450;2023-04-15T00:28:11;11.70;1.00
26053;DHT22;13826;51.186;4.450;2023-04-15T00:30:36;11.40;1.00
26053;DHT22;13826;51.186;4.450;2023-04-15T00:33:02;11.10;1.00
26053;DHT22;13826;51.186;4.450;2023-04-15T00:35:28;11.10;1.00
26053;DHT22;13826;51.186;4.450;2023-04-15T00:37:53;11.30;1.00
26053;DHT22;13826;51.186;4.450;2023-04-15T00:40:20;11.30;1.00
26053;DHT22;13826;51.186;4.450;2023-04-15T00:42:46;11.30;1.00
26053;DHT22;13826;51.186;4.450;2023-04-15T00:45:11;11.10;1.00
26053;DHT22;13826;51.186;4.450;2023-04-15T00:47:37;11.20;1.00
26053;DHT22;13826;51.186;4.450;2023-04-15T00:50:03;11.40;1.00
26053;DHT22;13826;51.186;4.450;2023-04-15T00:52:29;11.60;1.00
26053;DHT22;13826;51.186;4.450;2023-04-15T00:54:55;11.50;1.00
26053;DHT22;13826;51.186;4.450;2023-04-15T00:57:20;11.40;1.00
26053;DHT22;13826;51.186;4.450;2023-04-15T00:59:47;11.40;1.00
26053;DHT22;13826;51.186;4.450;2023-04-15T01:02:13;11.60;1.00
26053;DHT22;13826;51.186;4.450;2023-04-15T01:04:38;11.60;1.00
26053;DHT22;13826;51.186;4.450;2023-04-15T01:07:04;11.80;1.00
26053;DHT22;13826;51.186;4.450;2023-04-15T01:09:30;11.80;1.00
26053;DHT22;13826;51.186;4.450;2023-04-15T01:11:57;11.80;1.00
26053;DHT22;13826;51.186;4.450;2023-04-15T01:14:23;11.80;1.00
26053;DHT22;13826;51.186;4.450;2023-04-15T01:16:49;11.80;1.00
26053;DHT22;13826;51.186;4.450;2023-04-15T01:19:15;11.80;1.00
26053;DHT22;13826;51.186;4.450;2023-04-15T01:21:42;11.80;1.00
26053;DHT22;13826;51.186;4.450;2023-04-15T01:24:08;11.70;1.00
26053;DHT22;13826;51.186;4.450;2023-04-15T01:26:38;11.70;1.00
26053;DHT22;13826;51.186;4.450;2023-04-15T01:29:03;11.80;1.00
26053;DHT22;13826;51.186;4.450;2023-04-15T01:31:29;11.80;1.00
26053;DHT22;13826;51.186;4.450;2023-04-15T01:33:55;11.90;1.00
26053;DHT22;13826;51.186;4.450;2023-04-15T01:36:20;11.80;6.90
26053;DHT22;13826;51.186;4.450;2023-04-15T01:38:46;12.00;3.30
26053;DHT22;13826;51.186;4.450;2023-04-15T01:41:14;12.00;8.40
26053;DHT22;13826;51.186;4.450;2023-04-15T01:43:40;12.00;1.00
26053;DHT22;13826;51.186;4.450;2023-04-15T01:46:06;11.80;1.00
26053;DHT22;13826;51.186;4.450;2023-04-15T01:48:31;11.80;1.00
26053;DHT22;13826;51.186;4.450;2023-04-15T01:50:57;11.70;1.00
26053;DHT22;13826;51.186;4.450;2023-04-15T01:53:23;11.50;1.00
26053;DHT22;13826;51.186;4.450;2023-04-15T01:55:49;11.60;1.00
26053;DHT22;13826;51.186;4.450;2023-04-15T01:58:15;11.70;1.00
26053;DHT22;13826;51.186;4.450;2023-04-15T02:00:41;11.80;1.00
26053;DHT22;13826;51.186;4.450;2023-04-15T02:03:07;11.60;1.00
26053;DHT22;13826;51.186;4.450;2023-04-15T02:05:32;11.40;1.00
26053;DHT22;13826;51.186;4.450;2023-04-15T02:07:58;11.20;4.10
26053;DHT22;13826;51.186;4.450;2023-04-15T02:10:23;11.20;15.10
26053;DHT22;13826;51.186;4.450;2023-04-15T02:12:49;11.40;17.10
26053;DHT22;13826;51.186;4.450;2023-04-15T02:15:14;11.60;17.50
26053;DHT22;13826;51.186;4.450;2023-04-15T02:17:40;11.60;24.40
26053;DHT22;13826;51.186;4.450;2023-04-15T02:20:10;11.60;24.20
26053;DHT22;13826;51.186;4.450;2023-04-15T02:22:35;11.60;26.30
26053;DHT22;13826;51.186;4.450;2023-04-15T02:25:01;11.70;23.00
26053;DHT22;13826;51.186;4.450;2023-04-15T02:27:26;11.60;11.50
26053;DHT22;13826;51.186;4.450;2023-04-15T02:29:53;11.40;8.50
26053;DHT22;13826;51.186;4.450;2023-04-15T02:32:18;11.20;1.00
26053;DHT22;13826;51.186;4.450;2023-04-15T02:34:44;11.30;1.00
26053;DHT22;13826;51.186;4.450;2023-04-15T02:37:11;11.30;1.00
26053;DHT22;13826;51.186;4.450;2023-04-15T02:39:37;11.20;1.00
26053;DHT22;13826;51.186;4.450;2023-04-15T02:42:03;11.30;1.00
26053;DHT22;13826;51.186;4.450;2023-04-15T02:44:30;11.20;1.00
26053;DHT22;13826;51.186;4.450;2023-04-15T02:46:57;11.10;1.00
26053;DHT22;13826;51.186;4.450;2023-04-15T02:49:23;11.10;1.00
26053;DHT22;13826;51.186;4.450;2023-04-15T02:51:49;11.10;7.70
26053;DHT22;13826;51.186;4.450;2023-04-15T02:54:19;11.30;6.50
26053;DHT22;13826;51.186;4.450;2023-04-15T02:56:45;11.40;1.00
26053;DHT22;13826;51.186;4.450;2023-04-15T02:59:11;11.40;4.80
26053;DHT22;13826;51.186;4.450;2023-04-15T03:01:36;11.20;1.00
26053;DHT22;13826;51.186;4.450;2023-04-15T03:04:02;11.00;19.80
26053;DHT22;13826;51.186;4.450;2023-04-15T03:06:28;11.00;15.80
26053;DHT22;13826;51.186;4.450;2023-04-15T03:08:53;10.80;30.60
26053;DHT22;13826;51.186;4.450;2023-04-15T03:11:19;10.70;36.00
26053;DHT22;13826;51.186;4.450;2023-04-15T03:13:45;10.50;42.70
26053;DHT22;13826;51.186;4.450;2023-04-15T03:16:11;10.40;44.70
26053;DHT22;13826;51.186;4.450;2023-04-15T03:18:37;10.30;45.30
26053;DHT22;13826;51.186;4.450;2023-04-15T03:21:03;10.30;56.30
26053;DHT22;13826;51.186;4.450;2023-04-15T03:23:29;10.40;49.60
26053;DHT22;13826;51.186;4.450;2023-04-15T03:25:55;10.40;52.20
26053;DHT22;13826;51.186;4.450;2023-04-15T03:28:22;10.60;52.10
26053;DHT22;13826;51.186;4.450;2023-04-15T03:30:48;10.70;33.30
26053;DHT22;13826;51.186;4.450;2023-04-15T03:33:13;10.80;28.70
26053;DHT22;13826;51.186;4.450;2023-04-15T03:35:39;10.80;43.40
26053;DHT22;13826;51.186;4.450;2023-04-15T03:38:04;10.70;55.80
26053;DHT22;13826;51.186;4.450;2023-04-15T03:40:30;10.50;41.10
26053;DHT22;13826;51.186;4.450;2023-04-15T03:42:55;10.20;46.60
26053;DHT22;13826;51.186;4.450;2023-04-15T03:45:21;10.10;57.50
26053;DHT22;13826;51.186;4.450;2023-04-15T03:47:46;10.10;67.10
26053;DHT22;13826;51.186;4.450;2023-04-15T03:50:12;10.20;58.00
26053;DHT22;13826;51.186;4.450;2023-04-15T03:52:37;10.30;69.10
26053;DHT22;13826;51.186;4.450;2023-04-15T03:55:03;10.50;59.50
26053;DHT22;13826;51.186;4.450;2023-04-15T03:57:29;10.50;53.00
26053;DHT22;13826;51.186;4.450;2023-04-15T03:59:55;10.50;59.40
26053;DHT22;13826;51.186;4.450;2023-04-15T04:02:20;10.50;64.60
26053;DHT22;13826;51.186;4.450;2023-04-15T04:04:47;10.30;55.40
26053;DHT22;13826;51.186;4.450;2023-04-15T04:07:15;10.40;52.10
26053;DHT22;13826;51.186;4.450;2023-04-15T04:09:41;10.30;57.10
26053;DHT22;13826;51.186;4.450;2023-04-15T04:12:06;10.30;72.00
26053;DHT22;13826;51.186;4.450;2023-04-15T04:14:33;10.30;75.80
26053;DHT22;13826;51.186;4.450;2023-04-15T04:16:58;10.40;77.80
26053;DHT22;13826;51.186;4.450;2023-04-15T04:19:24;10.50;77.50
26053;DHT22;13826;51.186;4.450;2023-04-15T04:21:50;10.50;78.00
26053;DHT22;13826;51.186;4.450;2023-04-15T04:24:15;10.50;80.60
26053;DHT22;13826;51.186;4.450;2023-04-15T04:26:41;10.50;88.50
26053;DHT22;13826;51.186;4.450;2023-04-15T04:29:06;10.40;86.10
26053;DHT22;13826;51.186;4.450;2023-04-15T04:31:32;10.50;90.10
26053;DHT22;13826;51.186;4.450;2023-04-15T04:33:57;10.10;82.00
26053;DHT22;13826;51.186;4.450;2023-04-15T04:36:23;10.00;89.10
26053;DHT22;13826;51.186;4.450;2023-04-15T04:38:48;9.90;86.30
26053;DHT22;13826;51.186;4.450;2023-04-15T04:41:14;10.10;83.80
26053;DHT22;13826;51.186;4.450;2023-04-15T04:43:40;10.20;78.50
26053;DHT22;13826;51.186;4.450;2023-04-15T04:46:06;10.10;83.60
26053;DHT22;13826;51.186;4.450;2023-04-15T04:48:31;10.20;79.60
26053;DHT22;13826;51.186;4.450;2023-04-15T04:50:57;10.20;77.70
26053;DHT22;13826;51.186;4.450;2023-04-15T04:53:23;10.30;72.60
26053;DHT22;13826;51.186;4.450;2023-04-15T04:55:48;10.30;81.60
26053;DHT22;13826;51.186;4.450;2023-04-15T04:58:14;10.40;67.60
26053;DHT22;13826;51.186;4.450;2023-04-15T05:00:40;10.30;75.90
26053;DHT22;13826;51.186;4.450;2023-04-15T05:03:06;10.00;82.40
26053;DHT22;13826;51.186;4.450;2023-04-15T05:05:31;10.10;85.60
26053;DHT22;13826;51.186;4.450;2023-04-15T05:07:57;10.10;81.70
26053;DHT22;13826;51.186;4.450;2023-04-15T05:10:23;10.00;67.50
26053;DHT22;13826;51.186;4.450;2023-04-15T05:12:48;9.90;74.40
26053;DHT22;13826;51.186;4.450;2023-04-15T05:15:14;9.80;79.30
26053;DHT22;13826;51.186;4.450;2023-04-15T05:17:40;9.90;77.40
26053;DHT22;13826;51.186;4.450;2023-04-15T05:20:05;10.00;71.90
26053;DHT22;13826;51.186;4.450;2023-04-15T05:22:31;10.20;61.90
26053;DHT22;13826;51.186;4.450;2023-04-15T05:24:57;10.40;59.00
26053;DHT22;13826;51.186;4.450;2023-04-15T05:27:22;10.60;56.90
26053;DHT22;13826;51.186;4.450;2023-04-15T05:29:48;10.50;43.10
26053;DHT22;13826;51.186;4.450;2023-04-15T05:32:14;10.50;49.40
26053;DHT22;13826;51.186;4.450;2023-04-15T05:34:39;10.60;41.00
26053;DHT22;13826;51.186;4.450;2023-04-15T05:37:06;10.60;46.30
26053;DHT22;13826;51.186;4.450;2023-04-15T05:39:31;10.70;53.70
26053;DHT22;13826;51.186;4.450;2023-04-15T05:41:57;10.50;65.80
26053;DHT22;13826;51.186;4.450;2023-04-15T05:44:22;10.70;62.10
26053;DHT22;13826;51.186;4.450;2023-04-15T05:46:48;10.40;54.30
26053;DHT22;13826;51.186;4.450;2023-04-15T05:49:13;10.50;63.80
26053;DHT22;13826;51.186;4.450;2023-04-15T05:51:39;10.70;59.10
26053;DHT22;13826;51.186;4.450;2023-04-15T05:54:04;10.80;47.90
26053;DHT22;13826;51.186;4.450;2023-04-15T05:56:31;10.60;37.50
26053;DHT22;13826;51.186;4.450;2023-04-15T05:58:56;10.50;42.70
26053;DHT22;13826;51.186;4.450;2023-04-15T06:01:22;10.70;44.10
26053;DHT22;13826;51.186;4.450;2023-04-15T06:03:47;10.80;43.60
26053;DHT22;13826;51.186;4.450;2023-04-15T06:06:13;10.80;28.80
26053;DHT22;13826;51.186;4.450;2023-04-15T06:08:39;10.80;32.80
26053;DHT22;13826;51.186;4.450;2023-04-15T06:11:05;10.80;26.60
26053;DHT22;13826;51.186;4.450;2023-04-15T06:13:31;10.80;28.80
26053;DHT22;13826;51.186;4.450;2023-04-15T06:15:57;10.80;27.50
26053;DHT22;13826;51.186;4.450;2023-04-15T06:18:22;10.70;15.90
26053;DHT22;13826;51.186;4.450;2023-04-15T06:20:48;10.80;25.50
26053;DHT22;13826;51.186;4.450;2023-04-15T06:23:13;10.80;17.90
26053;DHT22;13826;51.186;4.450;2023-04-15T06:25:39;10.90;21.60
26053;DHT22;13826;51.186;4.450;2023-04-15T06:28:05;11.00;7.70
26053;DHT22;13826;51.186;4.450;2023-04-15T06:30:31;11.00;18.30
26053;DHT22;13826;51.186;4.450;2023-04-15T06:32:56;11.10;3.80
26053;DHT22;13826;51.186;4.450;2023-04-15T06:35:22;11.00;1.00
26053;DHT22;13826;51.186;4.450;2023-04-15T06:37:47;11.20;1.00
26053;DHT22;13826;51.186;4.450;2023-04-15T06:40:13;11.50;1.00
26053;DHT22;13826;51.186;4.450;2023-04-15T06:42:38;11.80;1.00
26053;DHT22;13826;51.186;4.450;2023-04-15T06:45:04;12.00;1.00
26053;DHT22;13826;51.186;4.450;2023-04-15T06:47:31;12.20;1.00
26053;DHT22;13826;51.186;4.450;2023-04-15T06:49:56;12.90;1.00
26053;DHT22;13826;51.186;4.450;2023-04-15T06:52:22;13.00;1.00
26053;DHT22;13826;51.186;4.450;2023-04-15T06:54:47;13.60;1.00
26053;DHT22;13826;51.186;4.450;2023-04-15T06:57:13;14.30;99.90
26053;DHT22;13826;51.186;4.450;2023-04-15T06:59:38;15.00;1.00
26053;DHT22;13826;51.186;4.450;2023-04-15T07:02:04;14.80;99.90
26053;DHT22;13826;51.186;4.450;2023-04-15T07:04:29;14.40;99.90
26053;DHT22;13826;51.186;4.450;2023-04-15T07:06:55;14.10;99.90
26053;DHT22;13826;51.186;4.450;2023-04-15T07:09:22;13.90;1.00
26053;DHT22;13826;51.186;4.450;2023-04-15T07:11:47;13.70;1.00
26053;DHT22;13826;51.186;4.450;2023-04-15T07:14:13;13.70;1.00
26053;DHT22;13826;51.186;4.450;2023-04-15T07:16:39;14.60;99.90
26053;DHT22;13826;51.186;4.450;2023-04-15T07:19:04;16.10;1.00
26053;DHT22;13826;51.186;4.450;2023-04-15T07:21:30;17.20;1.00
26053;DHT22;13826;51.186;4.450;2023-04-15T07:23:56;17.80;99.90
26053;DHT22;13826;51.186;4.450;2023-04-15T07:26:23;18.40;1.00
26053;DHT22;13826;51.186;4.450;2023-04-15T07:28:48;17.70;1.00
26053;DHT22;13826;51.186;4.450;2023-04-15T07:31:14;18.30;1.00
26053;DHT22;13826;51.186;4.450;2023-04-15T07:33:41;20.00;99.90
26053;DHT22;13826;51.186;4.450;2023-04-15T07:36:06;21.50;1.00
26053;DHT22;13826;51.186;4.450;2023-04-15T07:38:32;22.10;99.90
26053;DHT22;13826;51.186;4.450;2023-04-15T07:40:57;22.10;99.90
26053;DHT22;13826;51.186;4.450;2023-04-15T07:43:23;23.00;99.90
26053;DHT22;13826;51.186;4.450;2023-04-15T07:45:48;23.70;99.90
26053;DHT22;13826;51.186;4.450;2023-04-15T07:48:14;25.60;99.90
26053;DHT22;13826;51.186;4.450;2023-04-15T07:50:40;25.20;99.90
26053;DHT22;13826;51.186;4.450;2023-04-15T07:53:05;24.80;93.80
26053;DHT22;13826;51.186;4.450;2023-04-15T07:55:31;23.50;94.10
26053;DHT22;13826;51.186;4.450;2023-04-15T07:57:57;24.20;95.30
26053;DHT22;13826;51.186;4.450;2023-04-15T08:00:22;24.60;87.50
26053;DHT22;13826;51.186;4.450;2023-04-15T08:02:48;23.50;87.10
26053;DHT22;13826;51.186;4.450;2023-04-15T08:05:14;23.50;95.50
26053;DHT22;13826;51.186;4.450;2023-04-15T08:07:40;24.30;93.00
26053;DHT22;13826;51.186;4.450;2023-04-15T08:10:05;25.80;86.00
26053;DHT22;13826;51.186;4.450;2023-04-15T08:12:31;27.30;48.60
26053;DHT22;13826;51.186;4.450;2023-04-15T08:14:57;27.60;20.30
26053;DHT22;13826;51.186;4.450;2023-04-15T08:17:23;26.90;15.30
26053;DHT22;13826;51.186;4.450;2023-04-15T08:19:48;26.50;15.10
26053;DHT22;13826;51.186;4.450;2023-04-15T08:22:14;26.10;18.00
26053;DHT22;13826;51.186;4.450;2023-04-15T08:24:40;25.40;15.20
26053;DHT22;13826;51.186;4.450;2023-04-15T08:27:05;25.20;18.10
26053;DHT22;13826;51.186;4.450;2023-04-15T08:29:32;25.20;27.80
26053;DHT22;13826;51.186;4.450;2023-04-15T08:31:58;25.40;27.50
26053;DHT22;13826;51.186;4.450;2023-04-15T08:34:24;27.60;19.80
26053;DHT22;13826;51.186;4.450;2023-04-15T08:36:50;26.30;8.30
26053;DHT22;13826;51.186;4.450;2023-04-15T08:39:16;27.10;9.90
26053;DHT22;13826;51.186;4.450;2023-04-15T08:41:44;26.10;7.30
26053;DHT22;13826;51.186;4.450;2023-04-15T08:44:12;25.90;12.80
26053;DHT22;13826;51.186;4.450;2023-04-15T08:46:38;26.40;11.20
26053;DHT22;13826;51.186;4.450;2023-04-15T08:49:08;26.50;11.10
26053;DHT22;13826;51.186;4.450;2023-04-15T08:51:34;26.80;7.90
26053;DHT22;13826;51.186;4.450;2023-04-15T08:54:00;27.80;4.80
26053;DHT22;13826;51.186;4.450;2023-04-15T08:56:26;26.40;1.00
26053;DHT22;13826;51.186;4.450;2023-04-15T08:58:52;25.90;4.10
26053;DHT22;13826;51.186;4.450;2023-04-15T09:01:18;26.00;5.90
26053;DHT22;13826;51.186;4.450;2023-04-15T09:03:43;25.50;5.80
26053;DHT22;13826;51.186;4.450;2023-04-15T09:06:10;26.10;9.00
26053;DHT22;13826;51.186;4.450;2023-04-15T09:08:35;26.70;7.50
26053;DHT22;13826;51.186;4.450;2023-04-15T09:11:01;27.10;4.30
26053;DHT22;13826;51.186;4.450;2023-04-15T09:13:27;27.20;4.00
26053;DHT22;13826;51.186;4.450;2023-04-15T09:15:53;26.30;1.30
26053;DHT22;13826;51.186;4.450;2023-04-15T09:18:52;26.60;1.00
26053;DHT22;13826;51.186;4.450;2023-04-15T09:21:12;26.20;1.00
26053;DHT22;13826;51.186;4.450;2023-04-15T09:23:39;25.70;4.80
26053;DHT22;13826;51.186;4.450;2023-04-15T09:26:05;27.20;3.50
26053;DHT22;13826;51.186;4.450;2023-04-15T09:28:31;26.70;1.00
26053;DHT22;13826;51.186;4.450;2023-04-15T09:30:57;26.90;1.00
26053;DHT22;13826;51.186;4.450;2023-04-15T09:33:23;26.30;1.00
26053;DHT22;13826;51.186;4.450;2023-04-15T09:35:55;26.80;1.00
26053;DHT22;13826;51.186;4.450;2023-04-15T09:38:21;26.40;1.00
26053;DHT22;13826;51.186;4.450;2023-04-15T09:40:47;26.50;1.00
26053;DHT22;13826;51.186;4.450;2023-04-15T09:43:12;27.10;1.00
26053;DHT22;13826;51.186;4.450;2023-04-15T09:45:38;26.30;1.00
26053;DHT22;13826;51.186;4.450;2023-04-15T09:48:19;26.00;1.00
26053;DHT22;13826;51.186;4.450;2023-04-15T09:50:48;25.40;1.00
26053;DHT22;13826;51.186;4.450;2023-04-15T09:53:17;25.40;1.00
26053;DHT22;13826;51.186;4.450;2023-04-15T09:58:18;24.90;1.00
26053;DHT22;13826;51.186;4.450;2023-04-15T10:00:47;24.70;1.00
26053;DHT22;13826;51.186;4.450;2023-04-15T10:03:17;25.40;1.00
26053;DHT22;13826;51.186;4.450;2023-04-15T10:05:43;26.30;1.00
26053;DHT22;13826;51.186;4.450;2023-04-15T10:08:08;26.50;1.00
26053;DHT22;13826;51.186;4.450;2023-04-15T10:10:35;26.50;1.00
26053;DHT22;13826;51.186;4.450;2023-04-15T10:13:00;26.10;1.00
26053;DHT22;13826;51.186;4.450;2023-04-15T10:15:27;26.20;1.00
26053;DHT22;13826;51.186;4.450;2023-04-15T10:17:54;25.90;1.00
26053;DHT22;13826;51.186;4.450;2023-04-15T10:20:21;26.20;1.00
26053;DHT22;13826;51.186;4.450;2023-04-15T10:22:47;26.30;1.00
26053;DHT22;13826;51.186;4.450;2023-04-15T10:25:14;26.00;1.00
26053;DHT22;13826;51.186;4.450;2023-04-15T10:27:39;26.80;1.00
26053;DHT22;13826;51.186;4.450;2023-04-15T10:30:08;26.80;1.00
26053;DHT22;13826;51.186;4.450;2023-04-15T10:32:33;27.60;1.00
26053;DHT22;13826;51.186;4.450;2023-04-15T10:34:59;28.50;1.00
26053;DHT22;13826;51.186;4.450;2023-04-15T10:37:32;28.00;1.00
26053;DHT22;13826;51.186;4.450;2023-04-15T10:39:58;28.60;1.00
26053;DHT22;13826;51.186;4.450;2023-04-15T10:42:24;28.80;1.00
26053;DHT22;13826;51.186;4.450;2023-04-15T10:44:58;27.90;1.00
26053;DHT22;13826;51.186;4.450;2023-04-15T10:47:24;26.60;1.00
26053;DHT22;13826;51.186;4.450;2023-04-15T10:49:56;26.30;1.00
26053;DHT22;13826;51.186;4.450;2023-04-15T10:52:23;26.30;1.00
26053;DHT22;13826;51.186;4.450;2023-04-15T10:54:53;25.70;1.00
26053;DHT22;13826;51.186;4.450;2023-04-15T10:57:26;26.10;1.00
26053;DHT22;13826;51.186;4.450;2023-04-15T10:59:59;26.30;1.00
26053;DHT22;13826;51.186;4.450;2023-04-15T11:02:41;27.00;1.00
26053;DHT22;13826;51.186;4.450;2023-04-15T11:05:08;27.30;1.00
26053;DHT22;13826;51.186;4.450;2023-04-15T11:07:34;26.40;1.00
26053;DHT22;13826;51.186;4.450;2023-04-15T11:10:00;26.30;1.00
26053;DHT22;13826;51.186;4.450;2023-04-15T11:12:35;26.20;1.00
26053;DHT22;13826;51.186;4.450;2023-04-15T11:17:46;25.60;1.00
26053;DHT22;13826;51.186;4.450;2023-04-15T11:20:13;25.50;1.00
26053;DHT22;13826;51.186;4.450;2023-04-15T11:22:45;25.80;1.00
26053;DHT22;13826;51.186;4.450;2023-04-15T11:25:20;25.80;1.00
26053;DHT22;13826;51.186;4.450;2023-04-15T11:27:46;25.50;1.00
26053;DHT22;13826;51.186;4.450;2023-04-15T11:30:18;24.40;1.00
26053;DHT22;13826;51.186;4.450;2023-04-15T11:32:45;24.50;1.00
26053;DHT22;13826;51.186;4.450;2023-04-15T11:35:11;24.90;1.00
26053;DHT22;13826;51.186;4.450;2023-04-15T11:37:36;26.10;1.00
26053;DHT22;13826;51.186;4.450;2023-04-15T11:40:02;25.50;1.00
26053;DHT22;13826;51.186;4.450;2023-04-15T11:42:28;25.60;1.00
26053;DHT22;13826;51.186;4.450;2023-04-15T11:45:07;25.70;1.00
26053;DHT22;13826;51.186;4.450;2023-04-15T11:47:34;25.30;1.00
26053;DHT22;13826;51.186;4.450;2023-04-15T11:50:13;24.90;1.00
26053;DHT22;13826;51.186;4.450;2023-04-15T11:52:42;24.30;1.00
26053;DHT22;13826;51.186;4.450;2023-04-15T11:55:16;24.70;1.00
26053;DHT22;13826;51.186;4.450;2023-04-15T11:57:42;24.10;1.00
26053;DHT22;13826;51.186;4.450;2023-04-15T12:00:07;23.20;1.00
26053;DHT22;13826;51.186;4.450;2023-04-15T12:02:35;23.60;1.00
26053;DHT22;13826;51.186;4.450;2023-04-15T12:05:04;23.50;1.00
26053;DHT22;13826;51.186;4.450;2023-04-15T12:07:30;23.50;1.00
26053;DHT22;13826;51.186;4.450;2023-04-15T12:09:56;23.70;1.00
26053;DHT22;13826;51.186;4.450;2023-04-15T12:12:25;24.00;1.00
26053;DHT22;13826;51.186;4.450;2023-04-15T12:14:51;22.60;1.00
26053;DHT22;13826;51.186;4.450;2023-04-15T12:17:17;21.70;1.00
26053;DHT22;13826;51.186;4.450;2023-04-15T12:19:42;21.20;1.00
26053;DHT22;13826;51.186;4.450;2023-04-15T12:22:13;20.30;1.00
26053;DHT22;13826;51.186;4.450;2023-04-15T12:24:40;20.30;1.00
26053;DHT22;13826;51.186;4.450;2023-04-15T12:27:07;20.10;1.00
26053;DHT22;13826;51.186;4.450;2023-04-15T12:29:33;19.70;1.00
26053;DHT22;13826;51.186;4.450;2023-04-15T12:32:04;19.70;10.30
26053;DHT22;13826;51.186;4.450;2023-04-15T12:34:33;19.70;29.80
26053;DHT22;13826;51.186;4.450;2023-04-15T12:37:00;19.50;31.00
26053;DHT22;13826;51.186;4.450;2023-04-15T12:39:26;19.30;25.00
26053;DHT22;13826;51.186;4.450;2023-04-15T12:41:52;19.30;17.90
26053;DHT22;13826;51.186;4.450;2023-04-15T12:44:18;19.20;23.30
26053;DHT22;13826;51.186;4.450;2023-04-15T12:46:44;19.00;42.40
26053;DHT22;13826;51.186;4.450;2023-04-15T12:49:10;18.60;79.20
26053;DHT22;13826;51.186;4.450;2023-04-15T12:51:35;18.70;71.40
26053;DHT22;13826;51.186;4.450;2023-04-15T12:54:01;18.90;56.40
26053;DHT22;13826;51.186;4.450;2023-04-15T12:56:27;18.90;64.70
26053;DHT22;13826;51.186;4.450;2023-04-15T12:58:53;18.80;46.30
26053;DHT22;13826;51.186;4.450;2023-04-15T13:01:19;18.80;53.60
26053;DHT22;13826;51.186;4.450;2023-04-15T13:03:45;18.90;68.40
26053;DHT22;13826;51.186;4.450;2023-04-15T13:06:10;19.10;63.40
26053;DHT22;13826;51.186;4.450;2023-04-15T13:08:36;18.90;63.10
26053;DHT22;13826;51.186;4.450;2023-04-15T13:11:02;18.80;99.90
26053;DHT22;13826;51.186;4.450;2023-04-15T13:13:27;18.90;99.90
26053;DHT22;13826;51.186;4.450;2023-04-15T13:15:53;19.20;99.90
26053;DHT22;13826;51.186;4.450;2023-04-15T13:18:18;19.20;99.90
26053;DHT22;13826;51.186;4.450;2023-04-15T13:20:44;19.20;99.90
26053;DHT22;13826;51.186;4.450;2023-04-15T13:23:10;19.10;99.90
26053;DHT22;13826;51.186;4.450;2023-04-15T13:25:35;19.10;99.90
26053;DHT22;13826;51.186;4.450;2023-04-15T13:28:01;18.90;70.60
26053;DHT22;13826;51.186;4.450;2023-04-15T13:30:27;18.70;91.00
26053;DHT22;13826;51.186;4.450;2023-04-15T13:32:52;18.60;99.90
26053;DHT22;13826;51.186;4.450;2023-04-15T13:35:18;18.50;99.90
26053;DHT22;13826;51.186;4.450;2023-04-15T13:37:44;18.50;99.90
26053;DHT22;13826;51.186;4.450;2023-04-15T13:40:10;18.20;99.90
26053;DHT22;13826;51.186;4.450;2023-04-15T13:42:36;18.00;99.90
26053;DHT22;13826;51.186;4.450;2023-04-15T13:45:01;17.80;99.90
26053;DHT22;13826;51.186;4.450;2023-04-15T13:47:27;17.80;99.90
26053;DHT22;13826;51.186;4.450;2023-04-15T13:49:52;17.60;99.90
26053;DHT22;13826;51.186;4.450;2023-04-15T13:52:20;17.80;99.90
26053;DHT22;13826;51.186;4.450;2023-04-15T13:54:46;17.80;99.90
26053;DHT22;13826;51.186;4.450;2023-04-15T13:57:12;17.80;99.90
26053;DHT22;13826;51.186;4.450;2023-04-15T13:59:37;17.70;99.90
26053;DHT22;13826;51.186;4.450;2023-04-15T14:02:03;17.70;99.90
26053;DHT22;13826;51.186;4.450;2023-04-15T14:04:29;17.90;99.90
26053;DHT22;13826;51.186;4.450;2023-04-15T14:06:55;18.00;99.90
26053;DHT22;13826;51.186;4.450;2023-04-15T14:09:20;17.80;99.90
26053;DHT22;13826;51.186;4.450;2023-04-15T14:11:48;17.90;99.90
26053;DHT22;13826;51.186;4.450;2023-04-15T14:14:14;17.80;99.90
26053;DHT22;13826;51.186;4.450;2023-04-15T14:16:39;17.90;99.90
26053;DHT22;13826;51.186;4.450;2023-04-15T14:19:05;17.70;99.90
26053;DHT22;13826;51.186;4.450;2023-04-15T14:21:30;17.60;99.90
26053;DHT22;13826;51.186;4.450;2023-04-15T14:23:57;17.50;99.90
26053;DHT22;13826;51.186;4.450;2023-04-15T14:26:22;17.40;99.90
26053;DHT22;13826;51.186;4.450;2023-04-15T14:28:48;17.40;99.90
26053;DHT22;13826;51.186;4.450;2023-04-15T14:31:13;17.80;99.90
26053;DHT22;13826;51.186;4.450;2023-04-15T14:33:39;18.00;99.90
26053;DHT22;13826;51.186;4.450;2023-04-15T14:36:06;18.00;99.90
26053;DHT22;13826;51.186;4.450;2023-04-15T14:38:35;18.10;99.90
26053;DHT22;13826;51.186;4.450;2023-04-15T14:41:04;18.00;99.90
26053;DHT22;13826;51.186;4.450;2023-04-15T14:43:30;18.00;99.90
26053;DHT22;13826;51.186;4.450;2023-04-15T14:45:56;17.80;99.90
26053;DHT22;13826;51.186;4.450;2023-04-15T14:48:21;18.00;99.90
26053;DHT22;13826;51.186;4.450;2023-04-15T14:50:47;18.10;99.90
26053;DHT22;13826;51.186;4.450;2023-04-15T14:53:13;17.80;99.90
26053;DHT22;13826;51.186;4.450;2023-04-15T14:55:38;17.70;99.90
26053;DHT22;13826;51.186;4.450;2023-04-15T14:58:05;17.60;99.90
26053;DHT22;13826;51.186;4.450;2023-04-15T15:00:30;17.50;99.90
26053;DHT22;13826;51.186;4.450;2023-04-15T15:02:56;17.40;99.90
26053;DHT22;13826;51.186;4.450;2023-04-15T15:05:22;17.40;99.90
26053;DHT22;13826;51.186;4.450;2023-04-15T15:07:48;17.40;99.90
26053;DHT22;13826;51.186;4.450;2023-04-15T15:10:13;17.40;99.90
26053;DHT22;13826;51.186;4.450;2023-04-15T15:12:39;17.10;99.90
26053;DHT22;13826;51.186;4.450;2023-04-15T15:15:05;16.90;1.00
26053;DHT22;13826;51.186;4.450;2023-04-15T15:17:30;16.90;1.00
26053;DHT22;13826;51.186;4.450;2023-04-15T15:19:56;16.80;1.00
26053;DHT22;13826;51.186;4.450;2023-04-15T15:22:21;16.70;1.00
26053;DHT22;13826;51.186;4.450;2023-04-15T15:24:47;16.60;1.00
26053;DHT22;13826;51.186;4.450;2023-04-15T15:27:13;16.60;1.00
26053;DHT22;13826;51.186;4.450;2023-04-15T15:29:38;16.50;99.90
26053;DHT22;13826;51.186;4.450;2023-04-15T15:32:04;16.40;99.90
26053;DHT22;13826;51.186;4.450;2023-04-15T15:34:29;16.50;99.90
26053;DHT22;13826;51.186;4.450;2023-04-15T15:36:55;16.50;99.90